Time;durP1;ratioP1;P1;durP2;ratioP2;P2;SDS_P1;SDS_P2;PMS_P1;PMS_P2;Temp;Humidity;BMP_temperature;BMP_pressure;BME280_temperature;BME280_humidity;BME280_pressure;Samples;Min_cycle;Max_cycle;Signal;HPM_P1;HPM_P2
2023/01/29 00:02:05;;;;;;;6.18;4.20;;;3.90;99.90;;;;;;6209365;23;20059;-87
2023/01/29 00:04:30;;;;;;;8.85;4.55;;;4.10;99.90;;;;;;6211615;23;20001;-87
2023/01/29 00:06:56;;;;;;;9.57;4.65;;;4.10;99.90;;;;;;6211587;23;20024;-87
2023/01/29 00:09:22;;;;;;;7.78;4.65;;;3.90;99.90;;;;;;6185136;23;20009;-89
2023/01/29 00:11:47;;;;;;;8.27;5.20;;;4.00;99.90;;;;;;6210182;23;20008;-87
2023/01/29 00:14:13;;;;;;;9.27;4.60;;;3.90;99.90;;;;;;6210946;23;20001;-87
2023/01/29 00:16:39;;;;;;;8.80;4.45;;;3.90;99.90;;;;;;6211048;23;20051;-87
2023/01/29 00:19:04;;;;;;;7.80;4.60;;;3.80;99.90;;;;;;6184865;23;20099;-89
2023/01/29 00:21:31;;;;;;;10.10;4.53;;;3.80;99.90;;;;;;6211225;23;20430;-87
2023/01/29 00:23:57;;;;;;;8.73;5.00;;;3.80;99.90;;;;;;6211475;23;20004;-88
2023/01/29 00:26:23;;;;;;;8.82;5.32;;;3.80;99.90;;;;;;6184863;23;20057;-87
2023/01/29 00:28:48;;;;;;;14.52;5.32;;;3.90;99.90;;;;;;6211596;23;20071;-86
2023/01/29 00:31:16;;;;;;;7.97;4.80;;;3.80;99.90;;;;;;6211908;23;20000;-86
2023/01/29 00:33:42;;;;;;;11.63;5.10;;;3.80;99.90;;;;;;6211596;23;20047;-87
2023/01/29 00:36:10;;;;;;;9.55;5.20;;;3.80;99.90;;;;;;6211273;23;20373;-87
2023/01/29 00:38:36;;;;;;;8.00;5.07;;;3.90;99.90;;;;;;6211589;23;20075;-87
2023/01/29 00:46:44;;;;;;;10.00;5.28;;;3.80;99.90;;;;;;6212648;23;20035;-87
2023/01/29 00:49:10;;;;;;;6.97;4.95;;;3.80;99.90;;;;;;6184677;23;20008;-87
2023/01/29 00:51:37;;;;;;;7.97;5.30;;;3.80;99.90;;;;;;6211149;23;20007;-86
2023/01/29 00:54:05;;;;;;;9.45;5.10;;;3.80;99.90;;;;;;6211182;23;20008;-87
2023/01/29 00:56:32;;;;;;;12.48;5.30;;;3.70;99.90;;;;;;6184467;23;20442;-86
2023/01/29 00:58:58;;;;;;;8.55;5.50;;;3.60;99.90;;;;;;6210894;23;20487;-86
2023/01/29 01:04:10;;;;;;;9.07;5.25;;;3.70;99.90;;;;;;6210937;23;20204;-86
2023/01/29 01:06:41;;;;;;;8.07;4.72;;;3.70;99.90;;;;;;6210703;23;20014;-87
2023/01/29 01:11:52;;;;;;;10.07;5.20;;;3.80;99.90;;;;;;6211013;23;20495;-87
2023/01/29 01:14:19;;;;;;;8.05;5.25;;;3.90;99.90;;;;;;6185385;23;20004;-86
2023/01/29 01:16:46;;;;;;;9.23;4.72;;;3.80;99.90;;;;;;6211726;23;20005;-87
2023/01/29 01:19:13;;;;;;;7.68;4.65;;;3.70;99.90;;;;;;6210463;23;20011;-86
2023/01/29 01:21:39;;;;;;;9.40;4.60;;;3.70;99.90;;;;;;6210702;23;20341;-87
2023/01/29 01:24:05;;;;;;;6.43;4.70;;;3.70;99.90;;;;;;6210632;23;20016;-86
2023/01/29 01:26:34;;;;;;;6.80;4.78;;;3.70;99.90;;;;;;6184234;23;20437;-87
2023/01/29 01:28:59;;;;;;;10.07;4.90;;;3.80;99.90;;;;;;6210705;23;20001;-87
2023/01/29 01:31:25;;;;;;;8.10;4.75;;;3.70;99.90;;;;;;6210809;23;20059;-87
2023/01/29 01:33:53;;;;;;;8.55;4.30;;;3.70;99.90;;;;;;6184272;23;20008;-87
2023/01/29 01:36:18;;;;;;;7.10;4.50;;;3.80;99.90;;;;;;6211752;23;20338;-87
2023/01/29 01:38:44;;;;;;;9.63;4.80;;;3.80;99.90;;;;;;6210843;23;20228;-86
2023/01/29 01:41:12;;;;;;;7.15;4.55;;;3.80;99.90;;;;;;6210644;23;19996;-86
2023/01/29 01:43:54;;;;;;;7.80;4.43;;;3.80;99.90;;;;;;6184033;23;20043;-86
2023/01/29 01:46:21;;;;;;;10.70;5.10;;;3.70;99.90;;;;;;6184813;23;20601;-86
2023/01/29 01:48:53;;;;;;;9.98;4.70;;;3.60;99.90;;;;;;6211665;23;20000;-87
2023/01/29 01:51:20;;;;;;;5.53;4.25;;;3.60;99.90;;;;;;6184856;23;20008;-86
2023/01/29 01:54:24;;;;;;;10.43;4.78;;;3.60;99.90;;;;;;6184157;23;20040;-86
2023/01/29 01:56:55;;;;;;;7.85;4.78;;;3.60;99.90;;;;;;6204046;23;20008;-87
2023/01/29 01:59:22;;;;;;;7.85;4.30;;;3.60;99.90;;;;;;6211361;23;20004;-86
2023/01/29 02:01:52;;;;;;;13.27;4.43;;;3.60;99.90;;;;;;6211594;23;20075;-88
2023/01/29 02:09:57;;;;;;;7.65;4.22;;;3.60;99.90;;;;;;6211345;23;19970;-87
2023/01/29 02:12:23;;;;;;;7.05;4.07;;;3.60;99.90;;;;;;6185001;23;20004;-89
2023/01/29 02:14:50;;;;;;;7.20;4.13;;;3.60;99.90;;;;;;6211262;23;20106;-88
2023/01/29 02:17:18;;;;;;;11.13;4.00;;;3.70;99.90;;;;;;6210463;23;20011;-86
2023/01/29 02:19:53;;;;;;;8.02;4.53;;;3.60;99.90;;;;;;6210205;23;20080;-86
2023/01/29 02:22:53;;;;;;;5.38;3.83;;;3.70;99.90;;;;;;6188796;23;20044;-86
2023/01/29 02:25:34;;;;;;;7.05;3.85;;;3.70;99.90;;;;;;6215698;23;20001;-87
2023/01/29 02:28:11;;;;;;;7.22;3.78;;;3.60;99.90;;;;;;6212157;23;20009;-88
2023/01/29 02:30:56;;;;;;;9.73;4.95;;;3.60;99.90;;;;;;6210557;23;20027;-86
2023/01/29 02:33:27;;;;;;;6.25;4.47;;;3.60;99.90;;;;;;6211641;23;20468;-87
2023/01/29 02:36:19;;;;;;;8.98;4.30;;;3.70;99.90;;;;;;6184908;23;20005;-87
2023/01/29 02:38:56;;;;;;;5.35;3.78;;;3.70;99.90;;;;;;6178205;23;20257;-89
2023/01/29 02:41:30;;;;;;;7.03;3.90;;;3.70;99.90;;;;;;6211469;23;20003;-87
2023/01/29 02:44:02;;;;;;;8.68;4.00;;;3.70;99.90;;;;;;6209993;23;20021;-86
2023/01/29 02:46:30;;;;;;;7.55;3.70;;;3.70;99.90;;;;;;6209846;23;20000;-88
2023/01/29 02:48:56;;;;;;;;;;;3.70;99.90;;;;;;6184162;23;20353;-86
2023/01/29 02:51:48;;;;;;;8.23;4.03;;;3.80;99.90;;;;;;6184529;23;19899;-87
2023/01/29 02:54:18;;;;;;;8.63;4.45;;;3.80;99.90;;;;;;6171270;23;20004;-87
2023/01/29 02:56:50;;;;;;;5.68;3.75;;;3.90;99.90;;;;;;6183052;23;20557;-86
2023/01/29 02:59:36;;;;;;;6.30;3.50;;;4.00;99.90;;;;;;6210281;23;20497;-87
2023/01/29 03:02:07;;;;;;;8.43;3.70;;;3.90;99.90;;;;;;6183541;23;20514;-87
2023/01/29 03:04:41;;;;;;;7.03;3.90;;;3.80;99.90;;;;;;6210377;23;20139;-88
2023/01/29 03:07:39;;;;;;;7.80;3.75;;;3.70;99.90;;;;;;6210368;23;20001;-87
2023/01/29 03:10:01;;;;;;;7.95;3.90;;;3.70;99.90;;;;;;6209995;23;20088;-89
2023/01/29 03:12:32;;;;;;;;;;;3.80;99.90;;;;;;6184408;23;20005;-86
2023/01/29 03:15:10;;;;;;;6.28;3.95;;;3.80;99.90;;;;;;6210258;23;20391;-86
2023/01/29 03:17:57;;;;;;;6.47;4.00;;;3.70;99.90;;;;;;6183523;23;20024;-87
2023/01/29 03:20:30;;;;;;;7.63;4.10;;;3.60;99.90;;;;;;6211245;23;20065;-87
2023/01/29 03:23:01;;;;;;;10.07;4.20;;;3.50;99.90;;;;;;6183823;23;20367;-86
2023/01/29 03:34:15;;;;;;;6.05;3.70;;;3.60;99.90;;;;;;6210915;23;20007;-87
2023/01/29 03:37:07;;;;;;;4.93;3.03;;;3.50;99.90;;;;;;6183920;23;20004;-90
2023/01/29 03:39:34;;;;;;;8.38;3.03;;;3.40;99.90;;;;;;6183303;23;20015;-87
2023/01/29 03:42:21;;;;;;;5.88;2.50;;;3.40;99.90;;;;;;6183864;23;20005;-93
2023/01/29 03:45:16;;;;;;;6.03;2.80;;;3.30;99.90;;;;;;6184000;23;20112;-89
2023/01/29 03:47:47;;;;;;;7.47;2.97;;;3.30;99.90;;;;;;6210011;23;20063;-90
2023/01/29 03:50:37;;;;;;;7.25;4.50;;;3.30;99.90;;;;;;6210499;23;20008;-90
2023/01/29 03:53:42;;;;;;;7.70;4.15;;;3.30;99.90;;;;;;6211787;23;20007;-89
2023/01/29 03:56:30;;;;;;;7.15;3.38;;;3.30;99.90;;;;;;6170354;23;20008;-92
2023/01/29 03:59:29;;;;;;;14.93;4.50;;;3.30;99.90;;;;;;6212756;23;20001;-92
2023/01/29 04:01:59;;;;;;;5.43;3.40;;;3.30;99.90;;;;;;6166879;23;20458;-88
2023/01/29 04:04:33;;;;;;;3.88;2.72;;;3.30;99.90;;;;;;6212913;23;20004;-89
2023/01/29 04:07:12;;;;;;;8.10;3.20;;;3.30;99.90;;;;;;6213212;23;20008;-89
2023/01/29 04:09:46;;;;;;;4.32;2.78;;;3.30;99.90;;;;;;6212263;23;20434;-92
2023/01/29 04:12:16;;;;;;;4.68;2.90;;;3.30;99.90;;;;;;6211659;23;19997;-90
2023/01/29 04:14:42;;;;;;;4.65;2.47;;;3.30;99.90;;;;;;6211668;23;20019;-88
2023/01/29 04:17:21;;;;;;;5.75;2.70;;;3.30;99.90;;;;;;6212285;23;20005;-87
2023/01/29 04:19:47;;;;;;;4.93;3.35;;;3.40;99.90;;;;;;6212198;23;20000;-88
2023/01/29 04:22:22;;;;;;;5.93;3.28;;;3.40;99.90;;;;;;6211926;23;20055;-91
2023/01/29 04:24:49;;;;;;;9.00;4.78;;;3.40;99.90;;;;;;6211517;23;20430;-90
2023/01/29 04:27:23;;;;;;;8.20;4.25;;;3.50;99.90;;;;;;6211407;23;20036;-90
2023/01/29 04:29:55;;;;;;;5.60;2.95;;;3.60;99.90;;;;;;6185262;23;20005;-89
2023/01/29 04:32:32;;;;;;;6.22;3.20;;;3.70;99.90;;;;;;6185373;23;20008;-89
2023/01/29 04:35:23;;;;;;;6.18;3.33;;;3.60;99.90;;;;;;6212938;23;20071;-88
2023/01/29 04:38:17;;;;;;;7.63;2.88;;;3.70;99.90;;;;;;6211241;23;20001;-89
2023/01/29 04:41:14;;;;;;;6.38;2.90;;;3.80;99.90;;;;;;6212425;23;20000;-90
2023/01/29 04:44:04;;;;;;;14.90;5.55;;;3.70;99.90;;;;;;6211260;23;20012;-87
2023/01/29 04:46:36;;;;;;;6.50;4.20;;;3.70;99.90;;;;;;6212872;23;20008;-89
2023/01/29 04:49:11;;;;;;;7.40;3.22;;;3.70;99.90;;;;;;6212703;23;20004;-87
2023/01/29 04:51:46;;;;;;;5.40;3.30;;;3.70;99.90;;;;;;6211431;23;20009;-89
2023/01/29 04:54:18;;;;;;;6.55;3.80;;;3.80;99.90;;;;;;6184835;23;20130;-89
2023/01/29 04:56:50;;;;;;;4.18;3.40;;;3.70;99.90;;;;;;6215058;23;20009;-86
2023/01/29 04:59:33;;;;;;;5.13;3.58;;;3.70;99.90;;;;;;6216453;23;20103;-87
2023/01/29 05:02:03;;;;;;;4.10;3.50;;;3.80;99.90;;;;;;6217202;23;20004;-88
2023/01/29 05:04:33;;;;;;;4.28;3.10;;;3.80;99.90;;;;;;6214440;23;20036;-86
2023/01/29 05:07:03;;;;;;;9.75;3.70;;;3.80;99.90;;;;;;6212399;23;20001;-86
2023/01/29 05:09:30;;;;;;;5.57;3.58;;;3.70;99.90;;;;;;6212566;23;20096;-87
2023/01/29 05:11:56;;;;;;;22.55;10.27;;;3.60;99.90;;;;;;6211163;23;20001;-87
2023/01/29 05:14:23;;;;;;;6.70;4.40;;;3.70;99.90;;;;;;6184982;23;20026;-88
2023/01/29 05:16:52;;;;;;;10.45;5.10;;;3.80;99.90;;;;;;6211564;23;20001;-89
2023/01/29 05:19:17;;;;;;;;;;;4.30;99.90;;;;;;6212095;23;20008;-90
2023/01/29 05:21:48;;;;;;;5.65;3.70;;;3.80;99.90;;;;;;6211336;23;19939;-87
2023/01/29 05:24:18;;;;;;;4.13;3.42;;;3.80;99.90;;;;;;6211648;23;20005;-91
2023/01/29 05:29:30;;;;;;;8.55;3.80;;;3.80;99.90;;;;;;6212327;23;20063;-92
2023/01/29 05:31:56;;;;;;;6.03;3.90;;;3.80;99.90;;;;;;6210917;23;20004;-90
2023/01/29 05:34:22;;;;;;;7.32;3.75;;;3.80;99.90;;;;;;6211267;23;20337;-89
2023/01/29 05:36:48;;;;;;;9.50;3.80;;;3.90;99.90;;;;;;6184693;23;20437;-90
2023/01/29 05:39:14;;;;;;;5.32;3.75;;;3.70;99.90;;;;;;6211433;23;20028;-89
2023/01/29 05:41:39;;;;;;;5.80;3.70;;;3.80;99.90;;;;;;6209394;23;20027;-89
2023/01/29 05:44:05;;;;;;;4.57;3.60;;;3.90;99.90;;;;;;6210931;23;20008;-88
2023/01/29 05:46:30;;;;;;;6.75;4.07;;;3.90;99.90;;;;;;6185043;23;20428;-88
2023/01/29 05:48:56;;;;;;;4.72;3.42;;;4.00;99.90;;;;;;6184295;23;20445;-88
2023/01/29 05:51:22;;;;;;;6.45;4.55;;;3.90;99.90;;;;;;6211026;23;20043;-90
2023/01/29 05:53:48;;;;;;;7.75;5.07;;;3.80;99.90;;;;;;6211290;23;20035;-86
2023/01/29 05:56:13;;;;;;;10.77;6.18;;;3.80;99.90;;;;;;6210977;23;20011;-89
2023/01/29 05:58:39;;;;;;;14.25;7.40;;;4.00;99.90;;;;;;6210851;23;20004;-87
2023/01/29 06:01:16;;;;;;;15.65;8.50;;;3.80;99.90;;;;;;6184736;23;20008;-87
2023/01/29 06:03:42;;;;;;;8.32;5.72;;;3.90;99.90;;;;;;6210789;23;20013;-89
2023/01/29 06:06:08;;;;;;;10.80;6.03;;;4.00;99.90;;;;;;6211061;23;20337;-89
2023/01/29 06:08:33;;;;;;;7.25;4.50;;;4.00;99.90;;;;;;6185660;23;20005;-93
2023/01/29 06:10:59;;;;;;;5.47;3.70;;;4.00;99.90;;;;;;6210949;23;20299;-87
2023/01/29 06:13:24;;;;;;;5.75;4.07;;;3.90;99.90;;;;;;6210693;23;20024;-89
2023/01/29 06:15:50;;;;;;;6.10;4.15;;;3.80;99.90;;;;;;6210848;23;20003;-87
2023/01/29 06:18:16;;;;;;;6.05;4.25;;;3.90;99.90;;;;;;6184524;23;20012;-87
2023/01/29 06:20:41;;;;;;;7.53;4.28;;;3.90;99.90;;;;;;6210843;23;20003;-88
2023/01/29 06:23:07;;;;;;;7.18;4.47;;;4.00;99.90;;;;;;6210799;23;20013;-86
2023/01/29 06:25:33;;;;;;;6.05;4.28;;;4.00;99.90;;;;;;6211965;23;20023;-90
2023/01/29 06:27:58;;;;;;;6.80;4.28;;;4.00;99.90;;;;;;6210272;23;20009;-88
2023/01/29 06:30:24;;;;;;;8.07;4.43;;;4.10;99.90;;;;;;6183952;23;20001;-91
2023/01/29 06:32:49;;;;;;;5.90;4.63;;;4.10;99.90;;;;;;6210288;23;20345;-87
2023/01/29 06:35:15;;;;;;;6.18;4.35;;;4.10;99.90;;;;;;6184136;23;20005;-90
2023/01/29 06:37:41;;;;;;;7.95;4.55;;;4.20;99.90;;;;;;6210537;23;20036;-89
2023/01/29 06:40:07;;;;;;;6.03;4.55;;;4.10;99.90;;;;;;6184808;23;20005;-89
2023/01/29 06:42:36;;;;;;;7.18;5.15;;;4.20;99.90;;;;;;6211022;23;20013;-89
2023/01/29 06:45:01;;;;;;;8.43;5.85;;;4.00;99.90;;;;;;6210193;23;20000;-88
2023/01/29 06:47:27;;;;;;;10.10;6.43;;;3.90;99.90;;;;;;6210653;23;20609;-86
2023/01/29 06:49:53;;;;;;;9.23;5.82;;;3.90;99.90;;;;;;6210589;23;20488;-89
2023/01/29 06:52:18;;;;;;;7.88;6.18;;;3.90;99.90;;;;;;6210872;23;20001;-88
2023/01/29 06:54:44;;;;;;;10.25;7.10;;;3.90;99.90;;;;;;6184136;23;20009;-89
2023/01/29 06:57:09;;;;;;;10.77;7.07;;;3.80;99.90;;;;;;6210289;23;20004;-92
2023/01/29 06:59:35;;;;;;;10.27;6.22;;;3.80;99.90;;;;;;6211516;23;20059;-88
2023/01/29 07:02:02;;;;;;;8.63;5.15;;;3.70;99.90;;;;;;6210809;23;20005;-87
2023/01/29 07:04:28;;;;;;;7.57;5.15;;;3.60;99.90;;;;;;6183682;23;20678;-90
2023/01/29 07:06:53;;;;;;;7.13;5.30;;;3.80;99.90;;;;;;6210297;23;20111;-91
2023/01/29 07:09:19;;;;;;;20.50;10.02;;;3.90;99.90;;;;;;6210717;23;20014;-90
2023/01/29 07:11:45;;;;;;;15.35;9.00;;;4.00;99.90;;;;;;6183693;23;20369;-92
2023/01/29 07:14:10;;;;;;;12.65;8.20;;;4.00;99.90;;;;;;6183917;23;20008;-88
2023/01/29 07:16:36;;;;;;;15.57;8.23;;;3.90;99.90;;;;;;6211871;23;20005;-87
2023/01/29 07:19:01;;;;;;;10.20;6.47;;;4.00;99.90;;;;;;6183720;23;20389;-92
2023/01/29 07:21:28;;;;;;;10.60;6.43;;;4.00;99.90;;;;;;6183230;23;20013;-91
2023/01/29 07:23:53;;;;;;;8.05;5.80;;;4.40;99.90;;;;;;6209146;23;20013;-90
2023/01/29 07:26:19;;;;;;;9.43;5.93;;;4.20;99.90;;;;;;6184106;23;20008;-89
2023/01/29 07:28:45;;;;;;;8.88;6.55;;;4.20;99.90;;;;;;6211156;23;20107;-89
2023/01/29 07:31:12;;;;;;;11.30;8.35;;;4.20;99.90;;;;;;6212366;23;20005;-86
2023/01/29 07:33:38;;;;;;;10.67;7.27;;;4.20;99.90;;;;;;6215799;23;20449;-88
2023/01/29 07:36:08;;;;;;;11.07;7.60;;;4.20;99.90;;;;;;6218243;23;20012;-89
2023/01/29 07:38:33;;;;;;;12.35;7.90;;;4.20;99.90;;;;;;6215434;23;20080;-87
2023/01/29 07:40:59;;;;;;;15.05;8.18;;;4.10;99.90;;;;;;6217429;23;20001;-86
2023/01/29 07:43:24;;;;;;;9.90;7.90;;;4.20;99.90;;;;;;6211711;23;20400;-88
2023/01/29 07:45:50;;;;;;;14.77;9.05;;;4.20;99.90;;;;;;6216697;23;20012;-87
2023/01/29 07:48:17;;;;;;;14.30;9.25;;;4.20;99.90;;;;;;6215633;23;20004;-88
2023/01/29 07:50:43;;;;;;;13.50;8.75;;;4.20;99.90;;;;;;6211774;23;20035;-90
2023/01/29 07:53:17;;;;;;;15.15;9.25;;;4.30;99.90;;;;;;6186378;23;20005;-88
2023/01/29 07:55:44;;;;;;;12.38;8.73;;;4.20;99.90;;;;;;6214823;23;20008;-87
2023/01/29 07:58:10;;;;;;;13.02;9.05;;;4.20;99.90;;;;;;6213232;23;20008;-92
2023/01/29 08:00:35;;;;;;;14.38;8.90;;;4.20;99.90;;;;;;6213015;23;20000;-90
2023/01/29 08:03:06;;;;;;;13.68;9.57;;;4.30;99.90;;;;;;6212332;23;20355;-91
2023/01/29 08:05:32;;;;;;;15.68;10.10;;;4.30;99.90;;;;;;6211572;23;20640;-88
2023/01/29 08:07:57;;;;;;;13.77;10.05;;;4.30;99.90;;;;;;6212285;23;20052;-88
2023/01/29 08:10:23;;;;;;;13.73;9.77;;;4.30;99.90;;;;;;6211935;23;20031;-91
2023/01/29 08:12:57;;;;;;;14.88;10.20;;;4.40;99.90;;;;;;6212184;23;20038;-93
2023/01/29 08:15:23;;;;;;;12.82;9.30;;;4.40;99.90;;;;;;6212460;23;20001;-92
2023/01/29 08:17:49;;;;;;;14.23;9.25;;;4.50;99.90;;;;;;6214076;23;20008;-89
2023/01/29 08:20:15;;;;;;;11.73;8.70;;;4.50;99.90;;;;;;6185943;23;20005;-91
2023/01/29 08:22:41;;;;;;;11.15;8.98;;;4.60;99.90;;;;;;6213273;23;20445;-90
2023/01/29 08:25:07;;;;;;;15.27;9.60;;;4.60;99.90;;;;;;6212840;23;20007;-88
2023/01/29 08:27:33;;;;;;;15.75;9.32;;;4.70;99.90;;;;;;6180515;23;20344;-89
2023/01/29 08:29:58;;;;;;;15.80;10.48;;;4.70;99.90;;;;;;6182341;23;19997;-90
2023/01/29 08:32:24;;;;;;;17.08;9.85;;;4.70;99.90;;;;;;6182047;23;20024;-89
2023/01/29 08:34:50;;;;;;;13.25;9.52;;;4.70;99.90;;;;;;6181475;23;20418;-87
2023/01/29 08:37:15;;;;;;;13.10;9.45;;;4.70;99.90;;;;;;6181559;23;20005;-86
2023/01/29 08:39:41;;;;;;;13.60;9.80;;;4.60;99.90;;;;;;6183475;23;20005;-91
2023/01/29 08:42:06;;;;;;;11.57;8.93;;;4.60;99.90;;;;;;6181915;23;20043;-88
2023/01/29 08:44:32;;;;;;;14.25;9.80;;;4.50;99.90;;;;;;6182151;23;20442;-88
2023/01/29 08:46:57;;;;;;;14.63;9.50;;;4.40;99.90;;;;;;6181834;23;19997;-90
2023/01/29 08:49:23;;;;;;;14.90;8.82;;;4.30;99.90;;;;;;6204633;23;20009;-88
2023/01/29 08:51:50;;;;;;;16.15;8.85;;;4.30;99.90;;;;;;6181453;23;19997;-87
2023/01/29 08:54:16;;;;;;;12.25;9.40;;;4.30;99.90;;;;;;6182046;23;20005;-90
2023/01/29 08:56:42;;;;;;;13.43;9.98;;;4.40;99.90;;;;;;6182919;23;20012;-88
2023/01/29 08:59:09;;;;;;;11.95;9.45;;;4.50;99.90;;;;;;6181880;23;20009;-89
2023/01/29 09:01:34;;;;;;;11.48;9.48;;;4.60;99.90;;;;;;6181659;23;20012;-89
2023/01/29 09:04:00;;;;;;;11.07;9.30;;;4.70;99.90;;;;;;6181026;23;20080;-88
2023/01/29 09:06:25;;;;;;;10.07;8.98;;;4.60;99.90;;;;;;6181087;23;20001;-89
2023/01/29 09:08:51;;;;;;;16.92;8.88;;;4.60;99.90;;;;;;6181901;23;20005;-88
2023/01/29 09:11:17;;;;;;;11.85;8.80;;;4.70;99.90;;;;;;6179345;23;20005;-88
2023/01/29 09:13:42;;;;;;;13.90;9.10;;;4.70;99.90;;;;;;6206106;23;20037;-88
2023/01/29 09:16:08;;;;;;;15.13;9.90;;;4.70;99.90;;;;;;6181432;23;20427;-88
2023/01/29 09:18:34;;;;;;;14.02;10.02;;;4.80;99.90;;;;;;6181235;23;19997;-91
2023/01/29 09:21:01;;;;;;;15.73;10.80;;;4.60;99.90;;;;;;6179492;23;20012;-87
2023/01/29 09:23:27;;;;;;;14.95;11.02;;;4.60;99.90;;;;;;6181498;23;20017;-89
2023/01/29 09:25:53;;;;;;;12.90;10.30;;;4.70;99.90;;;;;;6179633;23;20007;-86
2023/01/29 09:28:19;;;;;;;12.88;9.82;;;4.70;99.90;;;;;;6207554;23;20016;-86
2023/01/29 09:30:44;;;;;;;12.77;9.90;;;4.90;99.90;;;;;;6184892;23;20027;-86
2023/01/29 09:33:10;;;;;;;12.43;9.93;;;4.90;99.90;;;;;;6184117;23;20354;-89
2023/01/29 09:35:36;;;;;;;11.75;9.13;;;4.90;99.90;;;;;;6210163;23;20244;-87
2023/01/29 09:38:01;;;;;;;13.75;9.30;;;4.90;99.90;;;;;;6210909;23;20008;-87
2023/01/29 09:40:39;;;;;;;12.88;9.75;;;5.00;99.90;;;;;;6210927;23;20005;-86
2023/01/29 09:43:40;;;;;;;13.67;9.43;;;5.00;99.90;;;;;;6210779;23;20039;-87
2023/01/29 09:46:32;;;;;;;13.75;9.57;;;5.00;99.90;;;;;;6210633;23;20273;-87
2023/01/29 09:49:10;;;;;;;14.63;10.65;;;4.90;99.90;;;;;;6209739;23;20016;-87
2023/01/29 09:51:47;;;;;;;14.38;10.27;;;4.90;99.90;;;;;;6183178;23;20005;-88
2023/01/29 09:54:33;;;;;;;15.18;10.35;;;4.90;99.90;;;;;;6185056;23;20012;-88
2023/01/29 09:56:59;;;;;;;13.40;10.35;;;4.90;99.90;;;;;;6158492;23;20001;-87
2023/01/29 09:59:30;;;;;;;16.38;11.55;;;5.00;99.90;;;;;;6210851;23;20075;-87
2023/01/29 10:02:09;;;;;;;13.15;10.23;;;5.00;99.90;;;;;;6183827;23;20000;-88
2023/01/29 10:04:37;;;;;;;16.67;10.85;;;5.10;99.90;;;;;;6210127;23;20009;-87
2023/01/29 10:07:17;;;;;;;15.80;10.20;;;5.10;99.90;;;;;;6210481;23;20005;-87
2023/01/29 10:10:12;;;;;;;16.20;10.18;;;5.10;99.90;;;;;;6211749;23;20004;-86
2023/01/29 10:12:49;;;;;;;13.95;10.07;;;5.10;99.90;;;;;;6210831;23;20313;-86
2023/01/29 10:15:37;;;;;;;13.90;9.90;;;4.90;99.90;;;;;;6187671;23;20004;-86
2023/01/29 10:18:24;;;;;;;15.02;10.35;;;4.80;99.90;;;;;;6185725;23;20005;-87
2023/01/29 10:21:08;;;;;;;13.38;10.23;;;4.80;99.90;;;;;;6210226;23;20011;-86
2023/01/29 10:23:37;;;;;;;15.95;10.63;;;4.90;99.90;;;;;;6210236;23;20009;-86
2023/01/29 10:26:03;;;;;;;16.38;11.32;;;4.90;99.90;;;;;;6183931;23;20008;-86
2023/01/29 10:28:44;;;;;;;16.25;10.93;;;4.90;99.90;;;;;;6210151;23;20036;-87
2023/01/29 10:31:17;;;;;;;14.43;9.85;;;5.10;99.90;;;;;;6183735;23;20127;-87
2023/01/29 10:33:52;;;;;;;12.50;9.27;;;5.10;99.90;;;;;;6209845;23;20001;-87
2023/01/29 10:36:25;;;;;;;15.60;10.10;;;5.20;99.90;;;;;;6211520;23;20008;-86
2023/01/29 10:38:51;;;;;;;14.07;9.95;;;5.30;99.90;;;;;;6209957;23;20005;-87
2023/01/29 10:41:25;;;;;;;14.13;9.88;;;5.40;99.90;;;;;;6211587;23;19993;-86
2023/01/29 10:44:16;;;;;;;14.30;9.38;;;5.20;99.90;;;;;;6210285;23;20036;-87
2023/01/29 10:46:56;;;;;;;13.00;9.00;;;5.10;99.90;;;;;;6210060;23;20009;-86
2023/01/29 10:49:59;;;;;;;12.73;9.40;;;5.20;99.90;;;;;;6183167;23;20087;-87
2023/01/29 10:53:03;;;;;;;16.23;9.52;;;5.30;99.90;;;;;;6183365;23;20084;-87
2023/01/29 10:55:45;;;;;;;12.45;8.75;;;5.40;99.90;;;;;;6210506;23;20000;-85
2023/01/29 10:58:32;;;;;;;11.70;8.55;;;5.50;99.90;;;;;;6183289;23;20241;-87
2023/01/29 11:00:59;;;;;;;13.00;8.90;;;5.50;99.90;;;;;;6210200;23;20021;-86
2023/01/29 11:03:28;;;;;;;16.98;11.50;;;5.40;99.90;;;;;;6211907;23;20012;-87
2023/01/29 11:06:18;;;;;;;17.23;9.70;;;5.40;99.90;;;;;;6185633;23;20001;-87
2023/01/29 11:09:00;;;;;;;14.50;10.18;;;5.40;99.90;;;;;;6212115;23;19996;-87
2023/01/29 11:11:56;;;;;;;11.32;9.27;;;5.50;99.90;;;;;;6212179;23;20000;-87
2023/01/29 11:14:27;;;;;;;14.38;8.70;;;5.50;99.90;;;;;;6212750;23;20023;-86
2023/01/29 11:16:53;;;;;;;16.75;10.82;;;5.50;99.90;;;;;;6211614;23;20059;-87
2023/01/29 11:19:42;;;;;;;18.52;11.23;;;5.50;99.90;;;;;;6186079;23;20011;-87
2023/01/29 11:22:20;;;;;;;15.38;10.15;;;5.40;99.90;;;;;;6185858;23;20095;-86
2023/01/29 11:25:05;;;;;;;16.73;10.27;;;5.40;99.90;;;;;;6212286;23;20012;-88
2023/01/29 11:27:34;;;;;;;14.80;10.57;;;5.40;99.90;;;;;;6212308;23;20011;-86
2023/01/29 11:30:00;;;;;;;16.67;11.73;;;5.50;99.90;;;;;;6213538;23;20001;-87
2023/01/29 11:32:31;;;;;;;17.65;12.00;;;5.50;99.90;;;;;;6185197;23;20012;-88
2023/01/29 11:35:01;;;;;;;15.60;11.10;;;5.50;99.90;;;;;;6185776;23;20337;-88
2023/01/29 11:37:39;;;;;;;15.75;11.85;;;5.60;99.90;;;;;;6185312;23;20008;-88
2023/01/29 11:40:36;;;;;;;18.08;12.18;;;5.70;99.90;;;;;;6211664;23;20001;-87
2023/01/29 11:43:28;;;;;;;16.20;11.07;;;5.60;99.90;;;;;;6209609;23;20023;-88
2023/01/29 11:46:03;;;;;;;22.05;12.85;;;5.80;99.90;;;;;;6206399;23;20365;-87
2023/01/29 11:48:45;;;;;;;19.05;13.35;;;5.60;99.90;;;;;;6211650;23;19997;-87
2023/01/29 11:51:26;;;;;;;19.52;12.88;;;5.70;99.90;;;;;;6211273;23;20001;-88
2023/01/29 11:53:58;;;;;;;20.23;12.82;;;5.60;99.90;;;;;;6213089;23;20083;-87
2023/01/29 11:56:40;;;;;;;17.77;11.75;;;5.60;99.90;;;;;;6185982;23;20000;-88
2023/01/29 11:59:21;;;;;;;16.70;10.68;;;5.70;99.90;;;;;;6211760;23;20441;-86
2023/01/29 12:01:47;;;;;;;16.58;11.65;;;5.80;99.90;;;;;;6184879;23;20007;-87
2023/01/29 12:04:20;;;;;;;16.15;11.88;;;5.70;99.90;;;;;;6211830;23;20013;-87
2023/01/29 12:06:50;;;;;;;17.65;12.00;;;5.80;99.90;;;;;;6211856;23;20001;-87
2023/01/29 12:09:22;;;;;;;15.32;11.45;;;5.80;99.90;;;;;;6185361;23;20009;-87
2023/01/29 12:11:48;;;;;;;16.63;11.63;;;5.70;99.90;;;;;;6184443;23;20087;-87
2023/01/29 12:14:32;;;;;;;17.30;12.30;;;5.80;99.90;;;;;;6211858;23;20031;-87
2023/01/29 12:17:03;;;;;;;24.98;12.23;;;6.00;99.90;;;;;;6211833;23;20004;-87
2023/01/29 12:19:44;;;;;;;15.88;11.88;;;6.10;99.90;;;;;;6184842;23;20000;-88
2023/01/29 12:22:23;;;;;;;20.33;12.55;;;6.10;99.90;;;;;;6185453;23;20104;-87
2023/01/29 12:25:10;;;;;;;16.33;11.98;;;6.20;99.90;;;;;;6211077;23;20016;-88
2023/01/29 12:27:52;;;;;;;19.40;11.70;;;6.20;99.90;;;;;;6210553;23;20012;-87
2023/01/29 12:30:43;;;;;;;17.00;11.50;;;6.30;99.90;;;;;;6183136;23;20023;-88
2023/01/29 12:33:34;;;;;;;14.30;10.88;;;6.30;99.90;;;;;;6182485;23;20096;-88
2023/01/29 12:36:09;;;;;;;16.50;11.57;;;6.30;99.90;;;;;;6183009;23;20004;-87
2023/01/29 12:38:36;;;;;;;15.55;12.07;;;6.30;99.90;;;;;;6209805;23;20047;-87
2023/01/29 12:41:07;;;;;;;20.13;12.90;;;6.30;99.90;;;;;;6209669;23;20000;-88
2023/01/29 12:43:41;;;;;;;16.88;12.52;;;6.20;99.90;;;;;;6183234;23;20023;-89
2023/01/29 12:46:18;;;;;;;18.10;13.23;;;6.20;99.90;;;;;;6183123;23;20012;-87
2023/01/29 12:48:45;;;;;;;18.70;13.30;;;6.30;99.90;;;;;;6210052;23;20084;-88
2023/01/29 12:51:24;;;;;;;15.40;12.48;;;6.30;99.90;;;;;;6211092;23;20413;-88
2023/01/29 12:54:03;;;;;;;19.35;13.98;;;6.30;99.90;;;;;;6184065;23;20043;-88
2023/01/29 12:56:35;;;;;;;21.90;15.63;;;6.30;99.90;;;;;;6210326;23;19996;-88
2023/01/29 12:59:05;;;;;;;15.30;12.52;;;6.30;99.90;;;;;;6183155;23;20000;-88
2023/01/29 13:01:37;;;;;;;15.43;12.00;;;6.40;99.90;;;;;;6209261;23;20436;-87
2023/01/29 13:04:29;;;;;;;19.15;13.40;;;6.10;99.90;;;;;;6209495;23;20012;-89
2023/01/29 13:07:04;;;;;;;20.77;13.32;;;6.00;99.90;;;;;;6210436;23;19997;-87
2023/01/29 13:09:33;;;;;;;15.90;12.77;;;5.80;99.90;;;;;;6209797;23;20005;-86
2023/01/29 13:12:04;;;;;;;17.05;13.05;;;5.80;99.90;;;;;;6184724;23;20346;-86
2023/01/29 13:14:44;;;;;;;20.08;13.85;;;5.70;99.90;;;;;;6210383;23;20004;-87
2023/01/29 13:17:25;;;;;;;23.60;14.15;;;5.60;99.90;;;;;;6209915;23;20001;-87
2023/01/29 13:19:54;;;;;;;20.52;13.25;;;5.60;99.90;;;;;;6210622;23;20005;-87
2023/01/29 13:22:30;;;;;;;23.23;14.43;;;5.70;99.90;;;;;;6209956;23;20005;-89
2023/01/29 13:24:56;;;;;;;15.52;11.52;;;5.80;99.90;;;;;;6183390;23;20028;-85
2023/01/29 13:27:28;;;;;;;18.52;12.38;;;5.80;99.90;;;;;;6161433;23;1133680;-88
2023/01/29 13:29:55;;;;;;;18.30;12.48;;;5.80;99.90;;;;;;6211082;23;20341;-87
2023/01/29 13:32:30;;;;;;;17.75;12.43;;;5.80;99.90;;;;;;6184296;23;20011;-87
2023/01/29 13:35:02;;;;;;;19.50;12.05;;;5.70;99.90;;;;;;6211908;23;20005;-85
2023/01/29 13:37:52;;;;;;;22.90;13.95;;;5.70;99.90;;;;;;6211784;23;20012;-86
2023/01/29 13:40:25;;;;;;;21.20;13.68;;;5.80;99.90;;;;;;6210354;23;20011;-87
2023/01/29 13:42:53;;;;;;;18.45;13.30;;;5.70;99.90;;;;;;6210356;23;20401;-87
2023/01/29 13:45:27;;;;;;;19.55;13.85;;;5.80;99.90;;;;;;6184083;23;20008;-87